Terminal Aerodrome Forecast
Issued by NWS

Current Version | Previous Version | Text Only | Print | Product List | Glossary On
Versions: 1 2 3 4 5 6 7 8 9 10 11 12 13 14
000
FTUS46 KSEW 241700
TAFOLM
TAF
KOLM 241720Z 2418/2518 22005KT P6SM OVC015
     FM242100 26006KT P6SM BKN022 OVC040
     FM250600 20006KT P6SM OVC015
      TEMPO 2513/2517 3SM -DZ BR OVC008=

USA.gov is the U.S. government's official web portal to all federal, state and local government web resources and services.